Etusivu
METAR-TAF:

METAR-TAF

Lentoasemat :

Clayton, New Mexico, Yhdysvallat

Leveyspiiri: 36-26-54N, Pituuspiiri: 103-09-11W, korkeus merenpinnasta: 1513 m

Tämänhetkinen sää

Tämä raportti tehtiin 1 tunti ja 4 minuuttia sitten, kello 15.55 UTC
Tuuli 18 kn pohjoisesta puuskistuen 23 kn:hen
Lämpötila 10°C
Kosteus 29%
Ilmanpaine 1014 hPa
Näkyvyys: 16.1 km
selkeää

METAR: KCAO 181555Z AUTO 35018G23KT 10SM CLR 10/M07 A2995 RMK AO2 SLP126 T01001072

Aika: 09:59 (16:59 UTC)


TAF: puuttuu

Säähavainnot ja -ennusteet yli 4000 lentoasemalta (METAR- ja TAF-raportit).

Käytössä olevat sääasemat on merkitty karttaan keltaisilla ja punaisilla pisteillä.

Aseta hiiri pisteen päälle nähdäksesi sääaseman nimen.

Klikkaa sitten nähdäksesi säähavainnot ja -ennusteet.

Kartan vaihtaminen: klikkaa mustalla rastilla varustettuja vihreitä pisteitä, niin voit zoomata sisään; viivalla varustettua vihreää pistettä, niin voit zoomata ulos tai vihreitä nuolia, niin pääset viereisille kartoille.


METAR-TAF: